PRC weather

Ernest A. Love Field
Prescott, Arizona, United States

Public forecast

Using degrees Fahrenheit for public forecast. Weather courtesy of forecast.io.

METAR (pilot weather report)

Retrieved 2019/05/24 05:53 UTC (25 minutes ago):

KPRC 240553Z AUTO 19008KT 10SM CLR 05/02 A3009 RMK AO2 SLP161 T00500017 10117 20050 51010

TAF (pilot weather forecast)

Retrieved 2019/05/24 06:36 UTC (0 seconds ago):

TAF KPRC 240533Z 2406/2506 21007KT P6SM SCT120